createdAt,value
2024-01-11T00:01:13.950Z,-4.19
2024-01-11T00:03:46.166Z,-4.13
2024-01-11T00:06:18.114Z,-4.06
2024-01-11T00:08:50.099Z,-4.21
2024-01-11T00:11:22.069Z,-4.19
2024-01-11T00:13:54.230Z,-4.27
2024-01-11T00:16:26.072Z,-4.17
2024-01-11T00:18:58.139Z,-4.18
2024-01-11T00:21:30.072Z,-4.03
2024-01-11T00:24:01.988Z,-4.20
2024-01-11T00:26:34.312Z,-4.22
2024-01-11T00:29:06.771Z,-4.15
2024-01-11T00:31:39.346Z,-4.28
2024-01-11T00:34:11.565Z,-4.15
2024-01-11T00:36:43.580Z,-4.23
2024-01-11T00:39:15.546Z,-4.12
2024-01-11T00:41:47.441Z,-4.07
2024-01-11T00:44:19.736Z,-4.05
2024-01-11T00:46:52.142Z,-4.10
2024-01-11T00:49:24.316Z,-4.21
2024-01-11T00:51:56.876Z,-4.18
2024-01-11T00:54:28.649Z,-4.33
2024-01-11T00:57:00.847Z,-4.30
2024-01-11T00:59:32.524Z,-4.33
2024-01-11T01:02:04.585Z,-4.41
2024-01-11T01:04:39.914Z,-4.30
2024-01-11T01:07:11.919Z,-4.43
2024-01-11T01:09:43.978Z,-4.35
2024-01-11T01:12:16.089Z,-4.37
2024-01-11T01:14:48.018Z,-4.43
2024-01-11T01:17:19.891Z,-4.45
2024-01-11T01:19:51.706Z,-4.45
2024-01-11T01:22:23.580Z,-4.42
2024-01-11T01:24:55.825Z,-4.51
2024-01-11T01:27:28.109Z,-4.36
2024-01-11T01:29:59.988Z,-4.48
2024-01-11T01:32:32.902Z,-4.50
2024-01-11T01:35:05.087Z,-4.59
2024-01-11T01:37:37.041Z,-4.70
2024-01-11T01:40:11.094Z,-4.58
2024-01-11T01:42:46.500Z,-4.71
2024-01-11T01:45:19.154Z,-4.67
2024-01-11T01:47:51.017Z,-4.71
2024-01-11T01:50:23.773Z,-4.60
2024-01-11T01:52:57.274Z,-4.69
2024-01-11T01:55:30.976Z,-4.75
2024-01-11T01:58:05.769Z,-4.72
2024-01-11T02:00:37.458Z,-4.78
2024-01-11T02:03:10.847Z,-4.64
2024-01-11T02:05:42.880Z,-4.73
2024-01-11T02:08:21.879Z,-4.69
2024-01-11T02:10:54.821Z,-4.66
2024-01-11T02:13:26.580Z,-4.78
2024-01-11T02:15:58.443Z,-4.70
2024-01-11T02:18:30.955Z,-4.85
2024-01-11T02:21:03.924Z,-4.78
2024-01-11T02:23:38.822Z,-4.88
2024-01-11T02:26:11.278Z,-4.89
2024-01-11T02:28:47.395Z,-4.81
2024-01-11T02:31:19.157Z,-4.94
2024-01-11T02:33:51.712Z,-4.84
2024-01-11T02:36:23.940Z,-4.95
2024-01-11T02:38:57.197Z,-5.02
2024-01-11T02:41:30.160Z,-5.00
2024-01-11T02:44:02.885Z,-5.05
2024-01-11T02:46:35.243Z,-4.91
2024-01-11T02:49:07.532Z,-5.00
2024-01-11T02:51:39.650Z,-4.95
2024-01-11T02:54:11.491Z,-5.12
2024-01-11T02:56:43.391Z,-4.99
2024-01-11T02:59:15.622Z,-5.11
2024-01-11T03:01:47.519Z,-5.20
2024-01-11T03:04:19.168Z,-5.12
2024-01-11T03:06:50.928Z,-5.28
2024-01-11T03:09:23.636Z,-5.22
2024-01-11T03:11:55.719Z,-5.30
2024-01-11T03:14:27.701Z,-5.34
2024-01-11T03:16:59.547Z,-5.30
2024-01-11T03:19:31.434Z,-5.40
2024-01-11T03:22:07.415Z,-5.28
2024-01-11T03:24:41.838Z,-5.28
2024-01-11T03:27:13.514Z,-5.18
2024-01-11T03:29:45.309Z,-5.02
2024-01-11T03:32:17.179Z,-5.03
2024-01-11T03:34:49.003Z,-4.87
2024-01-11T03:37:20.705Z,-4.85
2024-01-11T03:39:52.819Z,-4.71
2024-01-11T03:42:24.984Z,-4.65
2024-01-11T03:44:56.817Z,-4.65
2024-01-11T03:47:28.614Z,-4.73
2024-01-11T03:50:00.793Z,-4.79
2024-01-11T03:52:32.597Z,-4.74
2024-01-11T03:55:04.683Z,-4.88
2024-01-11T03:57:36.539Z,-4.84
2024-01-11T04:00:11.973Z,-4.96
2024-01-11T04:02:43.831Z,-5.05
2024-01-11T04:05:16.799Z,-5.02
2024-01-11T04:07:48.628Z,-5.15
2024-01-11T04:10:21.256Z,-5.17
2024-01-11T04:12:53.222Z,-5.34
2024-01-11T04:15:24.833Z,-5.35
2024-01-11T04:17:57.250Z,-5.37
2024-01-11T04:20:29.500Z,-5.43
2024-01-11T04:23:01.241Z,-5.36
2024-01-11T04:25:33.077Z,-5.53
2024-01-11T04:28:05.093Z,-5.47
2024-01-11T04:30:36.883Z,-5.50
2024-01-11T04:33:08.728Z,-5.58
2024-01-11T04:35:41.173Z,-5.49
2024-01-11T04:38:13.103Z,-5.56
2024-01-11T04:40:45.182Z,-5.44
2024-01-11T04:43:17.233Z,-5.40
2024-01-11T04:45:48.860Z,-5.37
2024-01-11T04:48:21.403Z,-5.19
2024-01-11T04:50:53.936Z,-5.19
2024-01-11T04:53:26.510Z,-5.04
2024-01-11T04:55:58.631Z,-5.14
2024-01-11T04:58:30.370Z,-5.03
2024-01-11T05:01:02.917Z,-4.94
2024-01-11T05:03:35.071Z,-4.99
2024-01-11T05:06:07.855Z,-4.90
2024-01-11T05:08:39.978Z,-4.99
2024-01-11T05:11:16.946Z,-4.96
2024-01-11T05:13:49.464Z,-4.99
2024-01-11T05:16:24.614Z,-5.11
2024-01-11T05:18:57.916Z,-5.13
2024-01-11T05:21:30.060Z,-5.23
2024-01-11T05:24:02.073Z,-5.30
2024-01-11T05:26:33.954Z,-5.45
2024-01-11T05:29:06.795Z,-5.49
2024-01-11T05:31:39.234Z,-5.57
2024-01-11T05:34:13.454Z,-5.61
2024-01-11T05:36:45.451Z,-5.56
2024-01-11T05:39:18.213Z,-5.70
2024-01-11T05:41:50.063Z,-5.55
2024-01-11T05:44:21.731Z,-5.70
2024-01-11T05:46:53.436Z,-5.74
2024-01-11T05:49:25.117Z,-5.70
2024-01-11T05:51:57.413Z,-5.75
2024-01-11T05:54:29.411Z,-5.61
2024-01-11T05:57:01.109Z,-5.60
2024-01-11T05:59:33.097Z,-5.46
2024-01-11T06:02:05.550Z,-5.39
2024-01-11T06:04:37.386Z,-5.37
2024-01-11T06:07:09.102Z,-5.18
2024-01-11T06:09:40.758Z,-5.18
2024-01-11T06:12:12.923Z,-5.08
2024-01-11T06:14:44.739Z,-5.07
2024-01-11T06:17:16.957Z,-5.17
2024-01-11T06:19:48.796Z,-5.18
2024-01-11T06:22:20.770Z,-5.31
2024-01-11T06:24:52.703Z,-5.29
2024-01-11T06:27:24.409Z,-5.50
2024-01-11T06:29:56.232Z,-5.62
2024-01-11T06:32:28.615Z,-5.61
2024-01-11T06:35:00.436Z,-5.80
2024-01-11T06:37:32.362Z,-5.82
2024-01-11T06:40:04.979Z,-5.95
2024-01-11T06:42:37.446Z,-5.94
2024-01-11T06:45:11.504Z,-5.93
2024-01-11T06:47:43.679Z,-6.06
2024-01-11T06:50:16.044Z,-5.98
2024-01-11T06:52:48.140Z,-6.07
2024-01-11T06:55:20.105Z,-5.93
2024-01-11T06:57:52.091Z,-5.84
2024-01-11T07:00:24.503Z,-5.81
2024-01-11T07:02:56.278Z,-5.71
2024-01-11T07:05:28.208Z,-5.74
2024-01-11T07:08:00.380Z,-5.54
2024-01-11T07:10:33.337Z,-5.56
2024-01-11T07:13:06.166Z,-5.56
2024-01-11T07:15:38.120Z,-5.46
2024-01-11T07:18:10.334Z,-5.49
2024-01-11T07:20:42.391Z,-5.38
2024-01-11T07:23:14.955Z,-5.45
2024-01-11T07:25:47.036Z,-5.44
2024-01-11T07:28:20.813Z,-5.40
2024-01-11T07:30:52.626Z,-5.55
2024-01-11T07:33:24.772Z,-5.46
2024-01-11T07:35:57.130Z,-5.56
2024-01-11T07:38:29.015Z,-5.49
2024-01-11T07:41:00.768Z,-5.56
2024-01-11T07:43:45.552Z,-5.68
2024-01-11T07:46:33.148Z,-5.75
2024-01-11T07:49:11.484Z,-5.86
2024-01-11T07:51:43.204Z,-5.71
2024-01-11T07:54:14.991Z,-5.73
2024-01-11T07:56:46.924Z,-5.72
2024-01-11T07:59:18.936Z,-5.65
2024-01-11T08:01:51.053Z,-5.70
2024-01-11T08:04:23.051Z,-5.60
2024-01-11T08:06:55.154Z,-5.71
2024-01-11T08:09:27.365Z,-5.58
2024-01-11T08:11:59.609Z,-5.60
2024-01-11T08:14:31.567Z,-5.48
2024-01-11T08:17:05.972Z,-5.47
2024-01-11T08:19:38.750Z,-5.40
2024-01-11T08:22:11.073Z,-5.32
2024-01-11T08:24:43.204Z,-5.28
2024-01-11T08:27:16.697Z,-4.93
2024-01-11T08:29:49.410Z,-4.71
2024-01-11T08:32:28.757Z,-4.51
2024-01-11T08:35:05.731Z,-4.43
2024-01-11T08:37:37.992Z,-4.44
2024-01-11T08:40:12.395Z,-4.22
2024-01-11T08:42:44.151Z,-4.13
2024-01-11T08:45:19.588Z,-4.00
2024-01-11T08:47:51.776Z,-4.05
2024-01-11T08:50:24.798Z,-4.04
2024-01-11T08:52:57.564Z,-3.89
2024-01-11T08:55:29.953Z,-3.87
2024-01-11T08:58:01.856Z,-3.77
2024-01-11T09:00:33.788Z,-3.58
2024-01-11T09:03:06.724Z,-2.02
2024-01-11T09:05:39.824Z,-0.49
2024-01-11T09:08:11.890Z,0.58
2024-01-11T09:10:44.077Z,1.61
2024-01-11T09:13:16.740Z,2.21
2024-01-11T09:15:48.932Z,2.54
2024-01-11T09:18:21.201Z,2.59
2024-01-11T09:20:54.226Z,3.43
2024-01-11T09:23:26.175Z,4.93
2024-01-11T09:25:58.537Z,5.64
2024-01-11T09:28:30.823Z,6.81
2024-01-11T09:31:03.419Z,7.75
2024-01-11T09:33:35.356Z,8.45
2024-01-11T09:36:09.845Z,8.84
2024-01-11T09:38:41.912Z,8.94
2024-01-11T09:41:16.141Z,9.23
2024-01-11T09:43:50.354Z,9.19
2024-01-11T09:46:23.958Z,9.58
2024-01-11T09:48:57.971Z,10.16
2024-01-11T09:51:31.622Z,10.10
2024-01-11T09:54:03.977Z,10.37
2024-01-11T09:56:37.286Z,10.16
2024-01-11T09:59:11.949Z,9.34
2024-01-11T10:01:45.805Z,8.97
2024-01-11T10:04:18.738Z,8.58
2024-01-11T10:06:52.307Z,8.44
2024-01-11T10:09:25.216Z,8.73
2024-01-11T10:11:57.206Z,8.60
2024-01-11T10:14:29.236Z,9.29
2024-01-11T10:17:01.390Z,9.76
2024-01-11T10:19:33.534Z,10.46
2024-01-11T10:22:07.935Z,11.45
2024-01-11T10:24:39.933Z,12.51
2024-01-11T10:27:13.944Z,13.25
2024-01-11T10:29:46.359Z,13.94
2024-01-11T10:32:18.986Z,14.22
2024-01-11T10:34:53.183Z,14.47
2024-01-11T10:37:25.425Z,14.95
2024-01-11T10:40:00.136Z,14.83
2024-01-11T10:42:38.446Z,15.30
2024-01-11T10:45:17.004Z,15.66
2024-01-11T10:47:55.973Z,16.15
2024-01-11T10:50:32.523Z,16.27
2024-01-11T10:53:14.872Z,16.49
2024-01-11T10:55:48.486Z,16.61
2024-01-11T10:58:22.159Z,16.46
2024-01-11T11:00:56.652Z,17.03
2024-01-11T11:03:29.736Z,16.81
2024-01-11T11:06:02.807Z,16.53
2024-01-11T11:08:35.533Z,16.56
2024-01-11T11:11:09.792Z,16.76
2024-01-11T11:13:40.863Z,16.85
2024-01-11T11:16:12.743Z,16.66
2024-01-11T11:18:44.871Z,16.73
2024-01-11T11:21:17.430Z,16.37
2024-01-11T11:23:51.569Z,16.23
2024-01-11T11:26:23.454Z,16.38
2024-01-11T11:28:55.812Z,16.38
2024-01-11T11:31:44.001Z,16.31
2024-01-11T11:34:17.943Z,16.52
2024-01-11T11:36:56.023Z,16.47
2024-01-11T11:39:28.062Z,16.88
2024-01-11T11:42:02.466Z,16.87
2024-01-11T11:44:34.596Z,16.71
2024-01-11T11:47:20.636Z,16.32
2024-01-11T11:50:07.586Z,16.44
2024-01-11T11:52:40.651Z,16.14
2024-01-11T11:55:14.540Z,16.24
2024-01-11T11:57:47.695Z,15.90
2024-01-11T12:00:21.231Z,15.59
2024-01-11T12:02:56.783Z,15.40
2024-01-11T12:05:29.443Z,15.16
2024-01-11T12:08:02.005Z,15.04
2024-01-11T12:10:33.908Z,14.77
2024-01-11T12:13:06.220Z,14.60
2024-01-11T12:15:38.278Z,14.36
2024-01-11T12:18:10.643Z,13.88
2024-01-11T12:20:43.271Z,13.02
2024-01-11T12:23:15.883Z,12.11
2024-01-11T12:25:48.428Z,11.50
2024-01-11T12:28:20.572Z,11.02
2024-01-11T12:30:53.284Z,10.49
2024-01-11T12:33:26.156Z,10.07
2024-01-11T12:35:59.344Z,9.42
2024-01-11T12:38:34.620Z,9.00
2024-01-11T12:41:08.579Z,8.52
2024-01-11T12:43:40.485Z,8.31
2024-01-11T12:46:12.881Z,8.00
2024-01-11T12:48:45.460Z,7.83
2024-01-11T12:51:21.853Z,7.54
2024-01-11T12:53:56.479Z,7.46
2024-01-11T12:56:28.939Z,7.23
2024-01-11T12:59:10.966Z,7.13
2024-01-11T13:01:43.223Z,6.93
2024-01-11T13:04:16.289Z,6.73
2024-01-11T13:06:49.675Z,6.53
2024-01-11T13:09:21.899Z,6.41
2024-01-11T13:11:54.346Z,6.18
2024-01-11T13:14:26.341Z,6.10
2024-01-11T13:16:58.860Z,5.92
2024-01-11T13:19:31.260Z,5.74
2024-01-11T13:22:03.943Z,5.65
2024-01-11T13:24:37.267Z,5.49
2024-01-11T13:27:09.259Z,5.44
2024-01-11T13:29:41.104Z,5.35
2024-01-11T13:32:12.958Z,5.61
2024-01-11T13:34:47.127Z,5.58
2024-01-11T13:37:20.026Z,5.69
2024-01-11T13:39:52.046Z,5.69
2024-01-11T13:42:23.748Z,5.83
2024-01-11T13:44:55.693Z,5.73
2024-01-11T13:47:27.863Z,5.74
2024-01-11T13:50:02.818Z,5.61
2024-01-11T13:52:35.270Z,5.63
2024-01-11T13:55:08.261Z,5.59
2024-01-11T13:57:40.635Z,5.74
2024-01-11T14:00:14.504Z,5.79
2024-01-11T14:02:46.580Z,5.78
2024-01-11T14:05:19.654Z,5.77
2024-01-11T14:07:55.793Z,5.68
2024-01-11T14:10:28.814Z,5.53
2024-01-11T14:13:01.150Z,5.51
2024-01-11T14:15:33.384Z,5.41
2024-01-11T14:18:06.355Z,5.30
2024-01-11T14:20:38.439Z,5.29
2024-01-11T14:23:10.453Z,5.20
2024-01-11T14:25:43.110Z,5.26
2024-01-11T14:28:15.405Z,5.17
2024-01-11T14:30:47.381Z,5.06
2024-01-11T14:33:21.335Z,5.02
2024-01-11T14:35:54.403Z,5.10
2024-01-11T14:38:27.357Z,4.95
2024-01-11T14:40:59.519Z,4.99
2024-01-11T14:43:31.408Z,4.73
2024-01-11T14:46:04.324Z,4.56
2024-01-11T14:48:36.466Z,4.47
2024-01-11T14:51:09.049Z,4.37
2024-01-11T14:53:42.045Z,4.37
2024-01-11T14:56:15.053Z,4.11
2024-01-11T14:58:47.178Z,4.07
2024-01-11T15:01:19.377Z,3.94
2024-01-11T15:03:51.428Z,3.91
2024-01-11T15:06:23.793Z,3.66
2024-01-11T15:08:56.213Z,3.51
2024-01-11T15:11:28.835Z,3.27
2024-01-11T15:14:01.092Z,3.31
2024-01-11T15:16:33.935Z,3.34
2024-01-11T15:19:07.059Z,3.17
2024-01-11T15:21:42.539Z,3.02
2024-01-11T15:24:16.655Z,2.92
2024-01-11T15:26:50.078Z,2.86
2024-01-11T15:29:23.060Z,2.87
2024-01-11T15:31:55.453Z,2.70
2024-01-11T15:34:27.619Z,2.60
2024-01-11T15:37:00.157Z,2.83
2024-01-11T15:39:33.426Z,2.60
2024-01-11T15:42:07.551Z,2.55
2024-01-11T15:44:41.201Z,2.50
2024-01-11T15:47:13.242Z,2.39
2024-01-11T15:49:45.713Z,2.24
2024-01-11T15:52:17.778Z,2.11
2024-01-11T15:54:50.278Z,2.10
2024-01-11T15:57:23.164Z,1.96
2024-01-11T15:59:55.532Z,1.98
2024-01-11T16:02:27.522Z,1.83
2024-01-11T16:04:59.874Z,2.01
2024-01-11T16:07:31.845Z,1.86
2024-01-11T16:10:04.011Z,1.74
2024-01-11T16:12:35.925Z,1.69
2024-01-11T16:15:09.552Z,1.62
2024-01-11T16:17:41.671Z,1.54
2024-01-11T16:20:16.123Z,1.55
2024-01-11T16:22:51.885Z,1.47
2024-01-11T16:25:24.712Z,1.41
2024-01-11T16:27:56.957Z,1.47
2024-01-11T16:30:29.375Z,1.20
2024-01-11T16:33:02.560Z,1.20
2024-01-11T16:35:44.707Z,1.10
2024-01-11T16:38:22.293Z,1.09
2024-01-11T16:40:55.768Z,1.00
2024-01-11T16:43:28.255Z,0.96
2024-01-11T16:46:00.256Z,0.81
2024-01-11T16:48:32.394Z,0.86
2024-01-11T16:51:04.920Z,0.90
2024-01-11T16:53:36.885Z,0.68
2024-01-11T16:56:10.212Z,0.73
2024-01-11T16:58:43.225Z,0.56
2024-01-11T17:01:15.664Z,0.71
2024-01-11T17:03:49.816Z,0.71
2024-01-11T17:06:22.685Z,0.62
2024-01-11T17:08:54.720Z,0.57
2024-01-11T17:11:27.032Z,0.45
2024-01-11T17:13:59.188Z,0.45
2024-01-11T17:16:31.334Z,0.35
2024-01-11T17:19:04.003Z,0.42
2024-01-11T17:21:36.500Z,0.33
2024-01-11T17:24:16.981Z,0.34
2024-01-11T17:26:49.061Z,0.23
2024-01-11T17:29:22.090Z,0.31
2024-01-11T17:31:54.521Z,0.31
2024-01-11T17:34:26.489Z,0.27
2024-01-11T17:36:58.709Z,0.31
2024-01-11T17:39:31.461Z,0.25
2024-01-11T17:42:07.506Z,0.23
2024-01-11T17:44:41.680Z,0.21
2024-01-11T17:47:13.817Z,0.22
2024-01-11T17:49:45.969Z,0.15
2024-01-11T17:52:18.965Z,0.06
2024-01-11T17:54:51.156Z,0.02
2024-01-11T17:57:24.627Z,-0.02
2024-01-11T17:59:56.742Z,-0.03
2024-01-11T18:02:33.736Z,-0.12
2024-01-11T18:05:06.989Z,-0.16
2024-01-11T18:07:39.230Z,-0.24
2024-01-11T18:10:11.941Z,-0.25
2024-01-11T18:12:44.177Z,-0.32
2024-01-11T18:15:16.508Z,-0.31
2024-01-11T18:17:48.822Z,-0.28
2024-01-11T18:20:21.433Z,-0.18
2024-01-11T18:22:53.562Z,-0.13
2024-01-11T18:25:25.635Z,-0.09
2024-01-11T18:27:58.006Z,-0.04
2024-01-11T18:30:30.525Z,0.02
2024-01-11T18:33:03.248Z,0.22
2024-01-11T18:35:35.392Z,0.19
2024-01-11T18:38:07.716Z,0.23
2024-01-11T18:40:43.022Z,0.28
2024-01-11T18:43:15.186Z,0.45
2024-01-11T18:45:48.821Z,0.43
2024-01-11T18:48:23.331Z,0.50
2024-01-11T18:50:55.930Z,0.48
2024-01-11T18:53:28.051Z,0.53
2024-01-11T18:56:00.702Z,0.55
2024-01-11T18:58:33.292Z,0.51
2024-01-11T19:01:09.387Z,0.55
2024-01-11T19:03:42.142Z,0.53
2024-01-11T19:06:20.778Z,0.72
2024-01-11T19:08:51.390Z,0.82
2024-01-11T19:11:26.134Z,0.86
2024-01-11T19:14:00.937Z,0.86
2024-01-11T19:16:36.613Z,0.87
2024-01-11T19:19:12.099Z,1.07
2024-01-11T19:21:47.687Z,0.99
2024-01-11T19:24:20.214Z,1.04
2024-01-11T19:26:52.696Z,1.00
2024-01-11T19:29:26.168Z,1.02
2024-01-11T19:32:02.352Z,0.95
2024-01-11T19:34:37.233Z,0.99
2024-01-11T19:37:12.725Z,1.11
2024-01-11T19:39:53.171Z,1.15
2024-01-11T19:42:25.664Z,1.26
2024-01-11T19:44:58.315Z,1.23
2024-01-11T19:47:31.782Z,1.28
2024-01-11T19:50:04.186Z,1.31
2024-01-11T19:52:36.310Z,1.36
2024-01-11T19:55:09.660Z,1.26
2024-01-11T19:57:43.232Z,1.29
2024-01-11T20:00:18.282Z,1.21
2024-01-11T20:02:50.950Z,1.28
2024-01-11T20:05:23.420Z,1.42
2024-01-11T20:07:55.219Z,1.38
2024-01-11T20:10:32.596Z,1.39
2024-01-11T20:13:05.280Z,1.30
2024-01-11T20:15:41.142Z,1.32
2024-01-11T20:18:13.669Z,1.25
2024-01-11T20:20:46.248Z,1.31
2024-01-11T20:23:18.505Z,1.31
2024-01-11T20:25:54.807Z,1.26
2024-01-11T20:28:27.573Z,1.24
2024-01-11T20:31:00.046Z,1.22
2024-01-11T20:33:32.533Z,1.35
2024-01-11T20:36:07.147Z,1.40
2024-01-11T20:38:39.621Z,1.55
2024-01-11T20:41:15.122Z,1.55
2024-01-11T20:43:47.319Z,1.71
2024-01-11T20:46:24.201Z,1.71
2024-01-11T20:48:56.262Z,1.65
2024-01-11T20:51:28.310Z,1.65
2024-01-11T20:54:02.250Z,1.59
2024-01-11T20:56:34.725Z,1.66
2024-01-11T20:59:06.615Z,1.62
2024-01-11T21:01:38.711Z,1.54
2024-01-11T21:04:10.869Z,1.42
2024-01-11T21:06:43.734Z,1.43
2024-01-11T21:09:15.834Z,1.42
2024-01-11T21:11:48.136Z,1.46
2024-01-11T21:14:21.045Z,1.54
2024-01-11T21:17:00.565Z,1.51
2024-01-11T21:19:32.796Z,1.62
2024-01-11T21:22:05.710Z,1.61
2024-01-11T21:24:38.694Z,1.71
2024-01-11T21:27:10.850Z,1.80
2024-01-11T21:29:43.359Z,1.80
2024-01-11T21:32:16.121Z,2.06
2024-01-11T21:34:49.602Z,1.98
2024-01-11T21:37:21.991Z,1.97
2024-01-11T21:39:58.096Z,1.92
2024-01-11T21:42:33.162Z,1.95
2024-01-11T21:45:09.828Z,1.93
2024-01-11T21:47:42.713Z,1.84
2024-01-11T21:50:15.704Z,1.95
2024-01-11T21:52:48.312Z,1.97
2024-01-11T21:55:20.503Z,2.13
2024-01-11T21:57:52.748Z,2.06
2024-01-11T22:00:24.695Z,2.27
2024-01-11T22:02:57.470Z,2.24
2024-01-11T22:05:29.675Z,2.32
2024-01-11T22:08:02.954Z,2.24
2024-01-11T22:10:34.721Z,2.46
2024-01-11T22:13:07.551Z,2.38
2024-01-11T22:15:40.160Z,2.36
2024-01-11T22:18:12.620Z,2.51
2024-01-11T22:20:45.030Z,2.53
2024-01-11T22:23:17.074Z,2.50
2024-01-11T22:25:49.193Z,2.46
2024-01-11T22:28:21.664Z,2.41
2024-01-11T22:30:54.141Z,2.38
2024-01-11T22:33:26.085Z,2.29
2024-01-11T22:35:58.120Z,2.25
2024-01-11T22:38:30.848Z,2.43
2024-01-11T22:41:03.657Z,2.42
2024-01-11T22:43:37.793Z,2.51
2024-01-11T22:46:10.108Z,2.41
2024-01-11T22:48:43.029Z,2.38
2024-01-11T22:51:15.951Z,2.43
2024-01-11T22:53:48.325Z,2.44
2024-01-11T22:56:20.425Z,2.46
2024-01-11T22:58:53.054Z,2.37
2024-01-11T23:01:25.133Z,2.43
2024-01-11T23:03:58.045Z,2.36
2024-01-11T23:06:30.545Z,2.33
2024-01-11T23:09:02.929Z,2.27
2024-01-11T23:11:34.880Z,2.43
2024-01-11T23:14:07.034Z,2.49
2024-01-11T23:16:39.352Z,2.54
2024-01-11T23:19:11.437Z,2.64
2024-01-11T23:21:43.753Z,2.56
2024-01-11T23:24:16.083Z,2.49
2024-01-11T23:26:48.279Z,2.41
2024-01-11T23:29:20.598Z,2.43
2024-01-11T23:31:52.513Z,2.33
2024-01-11T23:34:24.696Z,2.31
2024-01-11T23:36:56.522Z,2.23
2024-01-11T23:39:28.880Z,2.27
2024-01-11T23:42:00.848Z,2.25
2024-01-11T23:44:32.807Z,2.27
2024-01-11T23:47:04.707Z,2.24
2024-01-11T23:49:36.786Z,2.16
2024-01-11T23:52:10.096Z,2.20
2024-01-11T23:54:42.083Z,2.15
2024-01-11T23:57:14.408Z,2.24
2024-01-11T23:59:46.962Z,2.22
